createdAt,value
2018-11-23T06:08:10.998Z,24.75
2018-11-23T06:08:23.455Z,24.75
2018-11-23T06:08:35.865Z,24.75
2018-11-23T06:08:48.255Z,24.75
2018-11-23T06:09:00.640Z,24.75
2018-11-23T06:09:13.050Z,24.75
2018-11-23T06:09:25.482Z,24.75
2018-11-23T06:09:37.896Z,24.75
2018-11-23T06:09:50.312Z,24.75
2018-11-23T06:10:02.829Z,24.75
2018-11-23T06:10:15.207Z,24.75
2018-11-23T06:10:27.627Z,24.75
2018-11-23T06:10:39.999Z,24.75
2018-11-23T06:10:52.379Z,24.75
2018-11-23T06:11:04.776Z,24.75
2018-11-23T06:11:17.343Z,24.75
2018-11-23T06:11:29.730Z,24.75
2018-11-23T06:11:42.118Z,24.75
2018-11-23T06:11:54.488Z,24.75
2018-11-23T06:12:06.876Z,24.75
2018-11-23T06:12:19.245Z,24.75
2018-11-23T06:12:31.623Z,24.75
2018-11-23T06:12:43.998Z,24.75
2018-11-23T06:12:56.401Z,24.75
2018-11-23T06:13:08.773Z,24.75
2018-11-23T06:13:21.149Z,24.75
2018-11-23T06:13:33.538Z,24.75
2018-11-23T06:13:45.928Z,24.75
2018-11-23T06:13:58.301Z,24.75
2018-11-23T06:14:10.676Z,24.75
2018-11-23T06:14:23.070Z,24.75
2018-11-23T06:14:35.450Z,24.75
2018-11-23T06:14:47.845Z,24.75
2018-11-23T06:15:00.248Z,24.75
2018-11-23T06:15:12.655Z,24.75
2018-11-23T06:15:25.039Z,24.75
2018-11-23T06:15:38.131Z,24.75
2018-11-23T06:15:57.140Z,24.75
2018-11-23T06:16:09.529Z,24.75
2018-11-23T06:16:21.896Z,24.75
2018-11-23T06:16:34.280Z,24.75
2018-11-23T06:16:46.653Z,24.75
2018-11-23T06:16:59.031Z,24.75
2018-11-23T06:17:11.419Z,24.75
2018-11-23T06:17:23.814Z,24.75
2018-11-23T06:17:36.513Z,24.75
2018-11-23T06:17:48.889Z,24.75
2018-11-23T06:18:01.257Z,24.75
2018-11-23T06:18:13.701Z,25.35
2018-11-23T06:18:26.068Z,25.35
2018-11-23T06:18:38.450Z,25.35
2018-11-23T06:18:50.839Z,25.35
2018-11-23T06:19:03.230Z,25.35
2018-11-23T06:19:15.610Z,25.35
2018-11-23T06:19:28.156Z,25.35
2018-11-23T06:19:40.547Z,25.35
2018-11-23T06:19:52.921Z,25.35
2018-11-23T06:20:05.317Z,25.35
2018-11-23T06:20:17.726Z,25.35
2018-11-23T06:20:30.194Z,25.35
2018-11-23T06:20:42.592Z,25.35
2018-11-23T06:20:54.965Z,25.35
2018-11-23T06:21:07.342Z,25.35
2018-11-23T06:21:19.726Z,25.35
2018-11-23T06:21:32.099Z,25.35
2018-11-23T06:21:44.473Z,25.35
2018-11-23T06:21:56.849Z,25.35
2018-11-23T06:22:09.213Z,25.35
2018-11-23T06:22:21.844Z,25.35
2018-11-23T06:22:34.214Z,25.35
2018-11-23T06:22:46.585Z,25.35
2018-11-23T06:22:58.984Z,25.35
2018-11-23T06:23:11.411Z,25.35
2018-11-23T06:23:23.795Z,25.35
2018-11-23T06:23:36.180Z,25.35
2018-11-23T06:23:48.556Z,25.35
2018-11-23T06:24:00.932Z,25.35
2018-11-23T06:24:13.322Z,25.35
2018-11-23T06:24:32.048Z,25.35
2018-11-23T06:24:44.631Z,25.35
2018-11-23T06:24:57.008Z,25.35
2018-11-23T06:25:09.448Z,25.35
2018-11-23T06:25:21.855Z,25.35
2018-11-23T06:25:34.336Z,25.35
2018-11-23T06:25:46.842Z,25.35
2018-11-23T06:26:00.051Z,25.35
2018-11-23T06:26:12.457Z,25.35
2018-11-23T06:26:24.837Z,25.35
2018-11-23T06:26:37.216Z,25.35
2018-11-23T06:26:49.603Z,25.35
2018-11-23T06:27:01.986Z,25.35
2018-11-23T06:27:14.350Z,25.35
2018-11-23T06:27:26.741Z,25.35
2018-11-23T06:27:39.103Z,25.35
2018-11-23T06:27:51.495Z,25.35
2018-11-23T06:28:03.864Z,25.35
2018-11-23T06:28:16.244Z,25.47
2018-11-23T06:28:28.630Z,25.47
2018-11-23T06:28:41.006Z,25.47
2018-11-23T06:28:53.379Z,25.47
2018-11-23T06:29:05.769Z,25.47
2018-11-23T06:29:18.141Z,25.47
2018-11-23T06:29:30.500Z,25.47
2018-11-23T06:29:42.873Z,25.47
2018-11-23T06:29:55.237Z,25.47
2018-11-23T06:30:07.697Z,25.47
2018-11-23T06:30:20.096Z,25.47
2018-11-23T06:30:32.484Z,25.47
2018-11-23T06:30:44.866Z,25.47
2018-11-23T06:30:57.238Z,25.47
2018-11-23T06:31:09.620Z,25.47
2018-11-23T06:31:22.168Z,25.47
2018-11-23T06:31:34.697Z,25.47
2018-11-23T06:31:47.082Z,25.47
2018-11-23T06:32:00.456Z,25.47
2018-11-23T06:32:12.844Z,25.47
2018-11-23T06:32:25.228Z,25.47
2018-11-23T06:32:37.604Z,25.47
2018-11-23T06:32:49.981Z,25.47
2018-11-23T06:33:02.377Z,25.47
2018-11-23T06:33:14.766Z,25.47
2018-11-23T06:33:27.144Z,25.47
2018-11-23T06:33:39.520Z,25.47
2018-11-23T06:33:51.887Z,25.47
2018-11-23T06:34:04.399Z,25.47
2018-11-23T06:34:16.768Z,25.47
2018-11-23T06:34:29.142Z,25.47
2018-11-23T06:34:41.535Z,25.47
2018-11-23T06:34:53.911Z,25.47
2018-11-23T06:35:06.317Z,25.47
2018-11-23T06:35:18.830Z,25.47
2018-11-23T06:35:31.205Z,25.47
2018-11-23T06:35:43.650Z,25.47
2018-11-23T06:35:56.039Z,25.47
2018-11-23T06:36:08.422Z,25.47
2018-11-23T06:36:20.817Z,25.47
2018-11-23T06:36:33.183Z,25.47
2018-11-23T06:36:45.620Z,25.47
2018-11-23T06:36:58.322Z,25.47
2018-11-23T06:37:10.857Z,25.47
2018-11-23T06:37:23.288Z,25.47
2018-11-23T06:37:35.673Z,25.47
2018-11-23T06:37:48.049Z,25.47
2018-11-23T06:38:00.420Z,25.47
2018-11-23T06:38:12.962Z,24.7
2018-11-23T06:38:25.327Z,24.7
2018-11-23T06:38:37.720Z,24.7
2018-11-23T06:38:50.091Z,24.7
2018-11-23T06:39:02.465Z,24.7
2018-11-23T06:39:14.836Z,24.7
2018-11-23T06:39:27.213Z,24.7
2018-11-23T06:39:39.582Z,24.7
2018-11-23T06:39:51.947Z,24.7
2018-11-23T06:40:04.329Z,24.7
2018-11-23T06:40:16.723Z,24.7
2018-11-23T06:40:29.115Z,24.7
2018-11-23T06:40:41.493Z,24.7
2018-11-23T06:40:53.866Z,24.7
2018-11-23T06:41:13.518Z,24.7
2018-11-23T06:41:25.992Z,24.7
2018-11-23T06:41:38.457Z,24.7
2018-11-23T06:41:50.815Z,24.7
2018-11-23T06:42:03.187Z,24.7
2018-11-23T06:42:15.556Z,24.7
2018-11-23T06:42:27.950Z,24.7
2018-11-23T06:42:46.651Z,24.7
2018-11-23T06:42:59.048Z,24.7
2018-11-23T06:43:11.428Z,24.7
2018-11-23T06:43:23.828Z,24.7
2018-11-23T06:43:36.216Z,24.7
2018-11-23T06:43:48.610Z,24.7
2018-11-23T06:44:00.974Z,24.7
2018-11-23T06:44:13.418Z,24.7
2018-11-23T06:44:25.777Z,24.7
2018-11-23T06:44:38.148Z,24.7
2018-11-23T06:44:50.519Z,24.7
2018-11-23T06:45:02.888Z,24.7
2018-11-23T06:45:15.272Z,24.7
2018-11-23T06:45:27.966Z,24.7
2018-11-23T06:45:40.333Z,24.7
2018-11-23T06:45:52.702Z,24.7
2018-11-23T06:46:05.079Z,24.7
2018-11-23T06:46:17.605Z,24.7
2018-11-23T06:46:29.991Z,24.7
2018-11-23T06:46:42.435Z,24.7
2018-11-23T06:46:54.795Z,24.7
2018-11-23T06:47:07.191Z,24.7
2018-11-23T06:47:19.578Z,24.7
2018-11-23T06:47:31.961Z,24.7
2018-11-23T06:47:44.346Z,24.7
2018-11-23T06:47:56.755Z,24.7
2018-11-23T06:48:09.150Z,24.25
2018-11-23T06:48:21.539Z,24.25
2018-11-23T06:48:33.957Z,24.25
2018-11-23T06:48:46.344Z,24.25
2018-11-23T06:48:58.725Z,24.25
2018-11-23T06:49:11.099Z,24.25
2018-11-23T06:49:23.464Z,24.25
2018-11-23T06:49:35.850Z,24.25
2018-11-23T06:49:48.224Z,24.25
2018-11-23T06:50:00.746Z,24.25
2018-11-23T06:50:13.126Z,24.25
2018-11-23T06:50:25.516Z,24.25
2018-11-23T06:50:38.057Z,24.25
2018-11-23T06:50:50.428Z,24.25
2018-11-23T06:51:02.803Z,24.25
2018-11-23T06:51:15.191Z,24.25
2018-11-23T06:51:27.570Z,24.25
2018-11-23T06:51:39.954Z,24.25
2018-11-23T06:51:52.352Z,24.25
2018-11-23T06:52:04.877Z,24.25
2018-11-23T06:52:17.248Z,24.25
2018-11-23T06:52:29.628Z,24.25
2018-11-23T06:52:42.001Z,24.25
2018-11-23T06:52:54.389Z,24.25
2018-11-23T06:53:06.774Z,24.25
2018-11-23T06:53:19.178Z,24.25
2018-11-23T06:53:31.535Z,24.25
2018-11-23T06:53:43.914Z,24.25
2018-11-23T06:53:56.349Z,24.25
2018-11-23T06:54:14.447Z,24.25
2018-11-23T06:54:27.002Z,24.25
2018-11-23T06:54:39.371Z,24.25
2018-11-23T06:54:51.823Z,24.25
2018-11-23T06:55:04.260Z,24.25
2018-11-23T06:55:17.126Z,24.25
2018-11-23T06:55:29.504Z,24.25
2018-11-23T06:55:42.022Z,24.25
2018-11-23T06:55:54.396Z,24.25
2018-11-23T06:56:06.787Z,24.25
2018-11-23T06:56:19.173Z,24.25
2018-11-23T06:56:31.549Z,24.25
2018-11-23T06:56:43.923Z,24.25
2018-11-23T06:56:56.294Z,24.25
2018-11-23T06:57:08.693Z,24.25
2018-11-23T06:57:21.066Z,24.25
2018-11-23T06:57:33.462Z,24.25
2018-11-23T06:57:45.856Z,24.25
2018-11-23T06:57:58.246Z,24.25
2018-11-23T06:58:10.747Z,25.11
2018-11-23T06:58:23.183Z,25.11
2018-11-23T06:58:35.704Z,25.11
2018-11-23T06:58:48.107Z,25.11
2018-11-23T06:59:00.521Z,25.11
2018-11-23T06:59:12.924Z,25.11
2018-11-23T06:59:25.311Z,25.11
2018-11-23T06:59:37.717Z,25.11
2018-11-23T06:59:50.096Z,25.11
2018-11-23T07:00:02.480Z,25.11
2018-11-23T07:00:14.897Z,25.11
2018-11-23T07:00:27.344Z,25.11
2018-11-23T07:00:39.817Z,25.11
2018-11-23T07:00:52.228Z,25.11
2018-11-23T07:01:04.686Z,25.11
2018-11-23T07:01:17.090Z,25.11
2018-11-23T07:01:29.815Z,25.11
2018-11-23T07:01:42.322Z,25.11
2018-11-23T07:01:54.726Z,25.11
2018-11-23T07:02:07.120Z,25.11
2018-11-23T07:02:19.514Z,25.11
2018-11-23T07:02:31.901Z,25.11
2018-11-23T07:02:44.294Z,25.11
2018-11-23T07:03:03.471Z,25.11
2018-11-23T07:03:15.958Z,25.11
2018-11-23T07:03:28.331Z,25.11
2018-11-23T07:03:40.712Z,25.11
2018-11-23T07:03:53.089Z,25.11
2018-11-23T07:04:05.465Z,25.11
2018-11-23T07:04:17.840Z,25.11
2018-11-23T07:04:30.222Z,25.11
2018-11-23T07:04:42.604Z,25.11
2018-11-23T07:04:54.970Z,25.11
2018-11-23T07:05:07.459Z,25.11
2018-11-23T07:05:19.870Z,25.11
2018-11-23T07:05:32.263Z,25.11
2018-11-23T07:05:44.740Z,25.11
2018-11-23T07:05:57.125Z,25.11
2018-11-23T07:06:09.508Z,25.11
2018-11-23T07:06:21.913Z,25.11
2018-11-23T07:06:34.303Z,25.11
2018-11-23T07:06:46.822Z,25.11
2018-11-23T07:06:59.194Z,25.11
2018-11-23T07:07:11.575Z,25.11
2018-11-23T07:07:24.009Z,25.11
2018-11-23T07:07:36.910Z,25.11
2018-11-23T07:07:49.458Z,25.11
2018-11-23T07:08:01.949Z,25.11
2018-11-23T07:08:14.341Z,25.34
2018-11-23T07:08:26.751Z,25.34
2018-11-23T07:08:39.156Z,25.34
2018-11-23T07:08:57.977Z,25.34
2018-11-23T07:09:10.357Z,25.34
2018-11-23T07:09:22.737Z,25.34
2018-11-23T07:09:35.161Z,25.34
2018-11-23T07:09:47.577Z,25.34
2018-11-23T07:09:59.947Z,25.34
2018-11-23T07:10:12.345Z,25.34
2018-11-23T07:10:24.737Z,25.34
2018-11-23T07:10:37.096Z,25.34
2018-11-23T07:10:49.474Z,25.34
2018-11-23T07:11:01.851Z,25.34
2018-11-23T07:11:14.214Z,25.34
2018-11-23T07:11:26.613Z,25.34
2018-11-23T07:11:39.000Z,25.34
2018-11-23T07:11:51.378Z,25.34
2018-11-23T07:12:03.775Z,25.34
2018-11-23T07:12:16.194Z,25.34
2018-11-23T07:12:28.557Z,25.34
2018-11-23T07:12:40.938Z,25.34
2018-11-23T07:12:53.328Z,25.34
2018-11-23T07:13:06.127Z,25.34
2018-11-23T07:13:18.499Z,25.34
2018-11-23T07:13:30.882Z,25.34
2018-11-23T07:13:43.269Z,25.34
2018-11-23T07:13:55.639Z,25.34
2018-11-23T07:14:14.180Z,25.34
2018-11-23T07:14:26.543Z,25.34
2018-11-23T07:14:38.919Z,25.34
2018-11-23T07:14:51.291Z,25.34
2018-11-23T07:15:03.685Z,25.34
2018-11-23T07:15:17.169Z,25.34
2018-11-23T07:15:29.624Z,25.34
2018-11-23T07:15:42.070Z,25.34
2018-11-23T07:15:54.432Z,25.34
2018-11-23T07:16:06.980Z,25.34
2018-11-23T07:16:19.366Z,25.34
2018-11-23T07:16:31.752Z,25.34
2018-11-23T07:16:44.126Z,25.34
2018-11-23T07:16:56.505Z,25.34
2018-11-23T07:17:08.889Z,25.34
2018-11-23T07:17:21.284Z,25.34
2018-11-23T07:17:33.954Z,25.34
2018-11-23T07:17:46.328Z,25.34
2018-11-23T07:17:58.726Z,25.34
2018-11-23T07:18:11.116Z,25.44
2018-11-23T07:18:23.540Z,25.44
2018-11-23T07:18:35.904Z,25.44
2018-11-23T07:18:48.284Z,25.44
2018-11-23T07:19:00.660Z,25.44
2018-11-23T07:19:13.026Z,25.44
2018-11-23T07:19:25.467Z,25.44
2018-11-23T07:19:37.840Z,25.44
2018-11-23T07:19:50.213Z,25.44
2018-11-23T07:20:02.580Z,25.44
2018-11-23T07:20:14.947Z,25.44
2018-11-23T07:20:27.496Z,25.44
2018-11-23T07:20:39.856Z,25.44
2018-11-23T07:20:52.228Z,25.44
2018-11-23T07:21:05.185Z,25.44
2018-11-23T07:21:23.726Z,25.44
2018-11-23T07:21:36.114Z,25.44
2018-11-23T07:21:48.485Z,25.44
2018-11-23T07:22:00.878Z,25.44
2018-11-23T07:22:13.309Z,25.44
2018-11-23T07:22:25.676Z,25.44
2018-11-23T07:22:38.037Z,25.44
2018-11-23T07:22:50.505Z,25.44
2018-11-23T07:23:02.948Z,25.44
2018-11-23T07:23:15.371Z,25.44
2018-11-23T07:23:27.756Z,25.44
2018-11-23T07:23:40.173Z,25.44
2018-11-23T07:23:52.607Z,25.44
2018-11-23T07:24:04.968Z,25.44
2018-11-23T07:24:17.349Z,25.44
2018-11-23T07:24:29.801Z,25.44
2018-11-23T07:24:42.191Z,25.44
2018-11-23T07:24:54.571Z,25.44
2018-11-23T07:25:06.967Z,25.44
2018-11-23T07:25:19.358Z,25.44
2018-11-23T07:25:31.759Z,25.44
2018-11-23T07:25:44.253Z,25.44
2018-11-23T07:25:56.632Z,25.44
2018-11-23T07:26:09.035Z,25.44
2018-11-23T07:26:22.618Z,25.44
2018-11-23T07:26:34.988Z,25.44
2018-11-23T07:26:47.357Z,25.44
2018-11-23T07:26:59.737Z,25.44
2018-11-23T07:27:12.113Z,25.44
2018-11-23T07:27:24.573Z,25.44
2018-11-23T07:27:36.942Z,25.44
2018-11-23T07:27:49.315Z,25.44
2018-11-23T07:28:01.687Z,25.44
2018-11-23T07:28:20.867Z,26.15
2018-11-23T07:28:33.364Z,26.15
2018-11-23T07:28:45.754Z,26.15
2018-11-23T07:28:58.132Z,26.15
2018-11-23T07:29:10.523Z,26.15
2018-11-23T07:29:22.935Z,26.15
2018-11-23T07:29:35.347Z,26.15
2018-11-23T07:29:47.733Z,26.15
2018-11-23T07:30:00.123Z,26.15
2018-11-23T07:30:12.609Z,26.15
2018-11-23T07:30:24.990Z,26.15
2018-11-23T07:30:37.513Z,26.15
2018-11-23T07:30:49.877Z,26.15
2018-11-23T07:31:09.407Z,26.15
2018-11-23T07:31:21.951Z,26.15
2018-11-23T07:31:34.345Z,26.15
2018-11-23T07:31:46.978Z,26.15
2018-11-23T07:31:59.353Z,26.15
2018-11-23T07:32:11.755Z,26.15
2018-11-23T07:32:24.155Z,26.15
2018-11-23T07:32:36.769Z,26.15
2018-11-23T07:32:49.139Z,26.15
2018-11-23T07:33:01.544Z,26.15
2018-11-23T07:33:13.929Z,26.15
2018-11-23T07:33:26.393Z,26.15
2018-11-23T07:33:38.761Z,26.15
2018-11-23T07:33:51.153Z,26.15
2018-11-23T07:34:03.544Z,26.15
2018-11-23T07:34:15.923Z,26.15
2018-11-23T07:34:28.574Z,26.15
2018-11-23T07:34:41.106Z,26.15
2018-11-23T07:34:53.646Z,26.15
2018-11-23T07:35:06.057Z,26.15
2018-11-23T07:35:18.709Z,26.15
2018-11-23T07:35:31.248Z,26.15
2018-11-23T07:35:43.642Z,26.15
2018-11-23T07:35:56.062Z,26.15
2018-11-23T07:36:08.469Z,26.15
2018-11-23T07:36:20.947Z,26.15
2018-11-23T07:36:33.356Z,26.15
2018-11-23T07:36:45.744Z,26.15
2018-11-23T07:36:58.387Z,26.15
2018-11-23T07:37:10.794Z,26.15
2018-11-23T07:37:23.198Z,26.15
2018-11-23T07:37:35.792Z,26.15
2018-11-23T07:37:48.217Z,26.15
2018-11-23T07:38:00.647Z,26.15
2018-11-23T07:38:13.086Z,25.63
2018-11-23T07:38:25.496Z,25.63
2018-11-23T07:38:37.870Z,25.63
2018-11-23T07:38:50.266Z,25.63
2018-11-23T07:39:02.673Z,25.63
2018-11-23T07:39:15.075Z,25.63
2018-11-23T07:39:27.439Z,25.63
2018-11-23T07:39:39.837Z,25.63
2018-11-23T07:39:52.221Z,25.63
2018-11-23T07:40:04.630Z,25.63
2018-11-23T07:40:17.015Z,25.63
2018-11-23T07:40:29.404Z,25.63
2018-11-23T07:40:41.813Z,25.63
2018-11-23T07:40:54.200Z,25.63
2018-11-23T07:41:06.781Z,25.63
2018-11-23T07:41:19.249Z,25.63
2018-11-23T07:41:31.634Z,25.63
2018-11-23T07:41:44.046Z,25.63
2018-11-23T07:41:57.315Z,25.63
2018-11-23T07:42:09.720Z,25.63
2018-11-23T07:42:22.082Z,25.63
2018-11-23T07:42:34.446Z,25.63
2018-11-23T07:42:46.964Z,25.63
2018-11-23T07:42:59.344Z,25.63
2018-11-23T07:43:11.738Z,25.63
2018-11-23T07:43:24.177Z,25.63
2018-11-23T07:43:36.552Z,25.63
2018-11-23T07:43:48.929Z,25.63
2018-11-23T07:44:01.300Z,25.63
2018-11-23T07:44:13.671Z,25.63
2018-11-23T07:44:26.180Z,25.63
2018-11-23T07:44:38.569Z,25.63
2018-11-23T07:44:50.990Z,25.63
2018-11-23T07:45:03.425Z,25.63
2018-11-23T07:45:15.808Z,25.63
2018-11-23T07:45:28.212Z,25.63
2018-11-23T07:45:40.602Z,25.63
2018-11-23T07:45:52.994Z,25.63
2018-11-23T07:46:05.377Z,25.63
2018-11-23T07:46:17.980Z,25.63
2018-11-23T07:46:30.373Z,25.63
2018-11-23T07:46:42.764Z,25.63
2018-11-23T07:46:55.141Z,25.63
2018-11-23T07:47:07.519Z,25.63
2018-11-23T07:47:20.036Z,25.63
2018-11-23T07:47:32.408Z,25.63
2018-11-23T07:47:44.863Z,25.63
2018-11-23T07:47:57.307Z,25.63
2018-11-23T07:48:09.876Z,25.63
2018-11-23T07:48:22.280Z,25.16
2018-11-23T07:48:34.645Z,25.16
2018-11-23T07:48:47.022Z,25.16
2018-11-23T07:48:59.409Z,25.16
2018-11-23T07:49:11.885Z,25.16
2018-11-23T07:49:24.306Z,25.16
2018-11-23T07:49:36.701Z,25.16
2018-11-23T07:49:49.091Z,25.16
2018-11-23T07:50:01.728Z,25.16
2018-11-23T07:50:14.134Z,25.16
2018-11-23T07:50:26.506Z,25.16
2018-11-23T07:50:39.152Z,25.16
2018-11-23T07:50:51.595Z,25.16
2018-11-23T07:51:04.974Z,25.16
2018-11-23T07:51:17.408Z,25.16
2018-11-23T07:51:29.827Z,25.16
2018-11-23T07:51:49.368Z,25.16
2018-11-23T07:52:01.830Z,25.16
2018-11-23T07:52:14.276Z,25.16
2018-11-23T07:52:26.662Z,25.16
2018-11-23T07:52:39.069Z,25.16
2018-11-23T07:52:51.452Z,25.16
2018-11-23T07:53:03.872Z,25.16
2018-11-23T07:53:16.281Z,25.16
2018-11-23T07:53:28.667Z,25.16
2018-11-23T07:53:41.080Z,25.16
2018-11-23T07:53:53.463Z,25.16
2018-11-23T07:54:05.884Z,25.16
2018-11-23T07:54:18.262Z,25.16
2018-11-23T07:54:30.658Z,25.16
2018-11-23T07:54:43.061Z,25.16
2018-11-23T07:54:55.453Z,25.16
2018-11-23T07:55:07.852Z,25.16
2018-11-23T07:55:20.304Z,25.16
2018-11-23T07:55:32.749Z,25.16
2018-11-23T07:55:45.305Z,25.16
2018-11-23T07:55:57.817Z,25.16
2018-11-23T07:56:10.355Z,25.16
2018-11-23T07:56:22.738Z,25.16
2018-11-23T07:56:35.208Z,25.16
2018-11-23T07:56:48.393Z,25.16
2018-11-23T07:57:00.773Z,25.16
2018-11-23T07:57:13.150Z,25.16
2018-11-23T07:57:25.684Z,25.16
2018-11-23T07:57:38.085Z,25.16
2018-11-23T07:57:50.702Z,25.16
2018-11-23T07:58:03.104Z,25.16
2018-11-23T07:58:15.549Z,24.86
2018-11-23T07:58:27.923Z,24.86
2018-11-23T07:58:40.318Z,24.86
2018-11-23T07:58:52.724Z,24.86
2018-11-23T07:59:05.108Z,24.86
2018-11-23T07:59:17.530Z,24.86
2018-11-23T07:59:29.903Z,24.86
2018-11-23T07:59:42.318Z,24.86
2018-11-23T07:59:54.734Z,24.86
2018-11-23T08:00:07.149Z,24.86
2018-11-23T08:00:19.596Z,24.86
2018-11-23T08:00:32.062Z,24.86
2018-11-23T08:00:44.478Z,24.86
2018-11-23T08:00:56.881Z,24.86
2018-11-23T08:01:09.314Z,24.86
2018-11-23T08:01:21.745Z,24.86
2018-11-23T08:01:34.135Z,24.86
2018-11-23T08:01:46.859Z,24.86
2018-11-23T08:02:00.191Z,24.86
2018-11-23T08:02:12.604Z,24.86
2018-11-23T08:02:25.212Z,24.86
2018-11-23T08:02:37.729Z,24.86
2018-11-23T08:02:50.121Z,24.86
2018-11-23T08:03:02.539Z,24.86
2018-11-23T08:03:15.118Z,24.86
2018-11-23T08:03:27.556Z,24.86
2018-11-23T08:03:40.009Z,24.86
2018-11-23T08:03:52.397Z,24.86
2018-11-23T08:04:04.798Z,24.86
2018-11-23T08:04:17.206Z,24.86
2018-11-23T08:04:29.717Z,24.86
2018-11-23T08:04:42.131Z,24.86
2018-11-23T08:04:54.525Z,24.86
2018-11-23T08:05:07.226Z,24.86
2018-11-23T08:05:19.647Z,24.86
2018-11-23T08:05:32.142Z,24.86
2018-11-23T08:05:44.689Z,24.86
2018-11-23T08:05:57.120Z,24.86
2018-11-23T08:06:09.558Z,24.86
2018-11-23T08:06:21.953Z,24.86
2018-11-23T08:06:34.346Z,24.86
2018-11-23T08:06:46.744Z,24.86
2018-11-23T08:06:59.163Z,24.86
2018-11-23T08:07:11.558Z,24.86
2018-11-23T08:07:24.697Z,24.86
2018-11-23T08:07:37.112Z,24.86
2018-11-23T08:07:49.653Z,24.86
2018-11-23T08:08:02.205Z,24.86
2018-11-23T08:08:14.629Z,25.02
2018-11-23T08:08:27.146Z,25.02
2018-11-23T08:08:39.557Z,25.02
2018-11-23T08:08:51.982Z,25.02
2018-11-23T08:09:04.378Z,25.02
2018-11-23T08:09:16.792Z,25.02
2018-11-23T08:09:29.224Z,25.02
2018-11-23T08:09:41.780Z,25.02
2018-11-23T08:09:54.157Z,25.02
2018-11-23T08:10:06.567Z,25.02
2018-11-23T08:10:18.987Z,25.02
2018-11-23T08:10:31.419Z,25.02
2018-11-23T08:10:43.927Z,25.02
2018-11-23T08:10:56.343Z,25.02
2018-11-23T08:11:08.750Z,25.02
2018-11-23T08:11:21.146Z,25.02
2018-11-23T08:11:33.538Z,25.02
2018-11-23T08:11:45.952Z,25.02
2018-11-23T08:11:58.320Z,25.02
2018-11-23T08:12:10.706Z,25.02
2018-11-23T08:12:23.099Z,25.02
2018-11-23T08:12:35.557Z,25.02
2018-11-23T08:12:47.934Z,25.02
2018-11-23T08:13:00.341Z,25.02
2018-11-23T08:13:12.813Z,25.02
2018-11-23T08:13:25.224Z,25.02
2018-11-23T08:13:37.611Z,25.02
2018-11-23T08:13:49.967Z,25.02
2018-11-23T08:14:02.365Z,25.02
2018-11-23T08:14:14.757Z,25.02
2018-11-23T08:14:27.163Z,25.02
2018-11-23T08:14:39.548Z,25.02
2018-11-23T08:14:52.075Z,25.02
2018-11-23T08:15:05.570Z,25.02
2018-11-23T08:15:17.976Z,25.02
2018-11-23T08:15:30.466Z,25.02
2018-11-23T08:15:42.848Z,25.02
2018-11-23T08:15:55.208Z,25.02
2018-11-23T08:16:07.624Z,25.02
2018-11-23T08:16:20.026Z,25.02
2018-11-23T08:16:32.412Z,25.02
2018-11-23T08:16:44.818Z,25.02
2018-11-23T08:16:57.173Z,25.02
2018-11-23T08:17:09.592Z,25.02
2018-11-23T08:17:21.971Z,25.02
2018-11-23T08:17:34.637Z,25.02
2018-11-23T08:17:47.007Z,25.02
2018-11-23T08:17:59.393Z,25.02
2018-11-23T08:18:11.804Z,25.02
2018-11-23T08:18:24.194Z,24.65
2018-11-23T08:18:36.659Z,24.65
2018-11-23T08:18:49.086Z,24.65
2018-11-23T08:19:01.470Z,24.65
2018-11-23T08:19:13.873Z,24.65
2018-11-23T08:19:26.382Z,24.65
2018-11-23T08:19:38.772Z,24.65
2018-11-23T08:19:58.480Z,24.65
2018-11-23T08:20:10.865Z,24.65
2018-11-23T08:20:23.368Z,24.65
2018-11-23T08:20:35.759Z,24.65
2018-11-23T08:20:48.284Z,24.65
2018-11-23T08:21:00.649Z,24.65
2018-11-23T08:21:13.216Z,24.65
2018-11-23T08:21:25.763Z,24.65
2018-11-23T08:21:38.403Z,24.65
2018-11-23T08:21:50.787Z,24.65
2018-11-23T08:22:03.278Z,24.65
2018-11-23T08:22:15.892Z,24.65
2018-11-23T08:22:28.285Z,24.65
2018-11-23T08:22:40.672Z,24.65
2018-11-23T08:22:53.210Z,24.65
2018-11-23T08:23:05.724Z,24.65
2018-11-23T08:23:18.119Z,24.65
2018-11-23T08:23:30.517Z,24.65
2018-11-23T08:23:42.895Z,24.65
2018-11-23T08:23:55.297Z,24.65
2018-11-23T08:24:07.705Z,24.65
2018-11-23T08:24:20.231Z,24.65
2018-11-23T08:24:32.904Z,24.65
2018-11-23T08:24:45.438Z,24.65
2018-11-23T08:24:57.885Z,24.65
2018-11-23T08:25:10.594Z,24.65
2018-11-23T08:25:23.100Z,24.65
2018-11-23T08:25:35.986Z,24.65
2018-11-23T08:25:48.491Z,24.65
2018-11-23T08:26:00.877Z,24.65
2018-11-23T08:26:13.499Z,24.65
2018-11-23T08:26:25.880Z,24.65
2018-11-23T08:26:38.346Z,24.65
2018-11-23T08:26:50.721Z,24.65
2018-11-23T08:27:03.107Z,24.65
2018-11-23T08:27:15.545Z,24.65
2018-11-23T08:27:27.933Z,24.65
2018-11-23T08:27:40.313Z,24.65
2018-11-23T08:27:52.691Z,24.65
2018-11-23T08:28:05.098Z,24.65
2018-11-23T08:28:17.489Z,26.06
2018-11-23T08:28:29.878Z,26.06
2018-11-23T08:28:42.276Z,26.06
2018-11-23T08:28:54.936Z,26.06
2018-11-23T08:29:07.331Z,26.06
2018-11-23T08:29:19.723Z,26.06
2018-11-23T08:29:32.118Z,26.06
2018-11-23T08:29:44.632Z,26.06
2018-11-23T08:29:57.003Z,26.06
2018-11-23T08:30:09.497Z,26.06
2018-11-23T08:30:21.934Z,26.06
2018-11-23T08:30:34.390Z,26.06
2018-11-23T08:30:46.794Z,26.06
2018-11-23T08:30:59.257Z,26.06
2018-11-23T08:31:11.686Z,26.06
2018-11-23T08:31:24.377Z,26.06
2018-11-23T08:31:36.766Z,26.06
2018-11-23T08:31:49.244Z,26.06
2018-11-23T08:32:01.645Z,26.06
2018-11-23T08:32:14.045Z,26.06
2018-11-23T08:32:26.438Z,26.06
2018-11-23T08:32:38.824Z,26.06
2018-11-23T08:32:51.215Z,26.06
2018-11-23T08:33:03.627Z,26.06
2018-11-23T08:33:16.041Z,26.06
2018-11-23T08:33:28.703Z,26.06
2018-11-23T08:33:41.152Z,26.06
2018-11-23T08:33:53.558Z,26.06
2018-11-23T08:34:05.939Z,26.06
2018-11-23T08:34:18.332Z,26.06
2018-11-23T08:34:30.718Z,26.06
2018-11-23T08:34:43.194Z,26.06
2018-11-23T08:34:55.566Z,26.06
2018-11-23T08:35:07.984Z,26.06
2018-11-23T08:35:20.487Z,26.06
2018-11-23T08:35:32.988Z,26.06
2018-11-23T08:35:45.413Z,26.06
2018-11-23T08:35:57.817Z,26.06
2018-11-23T08:36:10.224Z,26.06
2018-11-23T08:36:22.698Z,26.06
2018-11-23T08:36:35.081Z,26.06
2018-11-23T08:36:47.585Z,26.06
2018-11-23T08:37:00.152Z,26.06
2018-11-23T08:37:12.556Z,26.06
2018-11-23T08:37:24.954Z,26.06
2018-11-23T08:37:37.352Z,26.06
2018-11-23T08:37:49.749Z,26.06
2018-11-23T08:38:02.160Z,26.06
2018-11-23T08:38:14.533Z,24.79
2018-11-23T08:38:26.904Z,24.79
2018-11-23T08:38:39.306Z,24.79
2018-11-23T08:38:51.743Z,24.79
2018-11-23T08:39:10.294Z,24.79
2018-11-23T08:39:22.684Z,24.79
2018-11-23T08:39:35.130Z,24.79
2018-11-23T08:39:47.508Z,24.79
2018-11-23T08:39:59.883Z,24.79
2018-11-23T08:40:12.373Z,24.79
2018-11-23T08:40:24.884Z,24.79
2018-11-23T08:40:37.291Z,24.79
2018-11-23T08:40:49.683Z,24.79
2018-11-23T08:41:02.130Z,24.79
2018-11-23T08:41:15.812Z,24.79
2018-11-23T08:41:28.220Z,24.79
2018-11-23T08:41:40.619Z,24.79
2018-11-23T08:41:53.079Z,24.79
2018-11-23T08:42:05.580Z,24.79
2018-11-23T08:42:18.015Z,24.79
2018-11-23T08:42:30.477Z,24.79
2018-11-23T08:42:42.998Z,24.79
2018-11-23T08:42:55.548Z,24.79
2018-11-23T08:43:07.941Z,24.79
2018-11-23T08:43:20.357Z,24.79
2018-11-23T08:43:32.770Z,24.79
2018-11-23T08:43:45.174Z,24.79
2018-11-23T08:43:57.590Z,24.79
2018-11-23T08:44:09.996Z,24.79
2018-11-23T08:44:22.451Z,24.79
2018-11-23T08:44:34.915Z,24.79
2018-11-23T08:44:47.303Z,24.79
2018-11-23T08:44:59.701Z,24.79
2018-11-23T08:45:12.102Z,24.79
2018-11-23T08:45:24.545Z,24.79
2018-11-23T08:45:36.946Z,24.79
2018-11-23T08:45:49.431Z,24.79
2018-11-23T08:46:01.835Z,24.79
2018-11-23T08:46:14.449Z,24.79
2018-11-23T08:46:26.907Z,24.79
2018-11-23T08:46:39.340Z,24.79
2018-11-23T08:46:51.762Z,24.79
2018-11-23T08:47:04.186Z,24.79
2018-11-23T08:47:16.583Z,24.79
2018-11-23T08:47:28.974Z,24.79
2018-11-23T08:47:41.404Z,24.79
2018-11-23T08:47:53.801Z,24.79
2018-11-23T08:48:06.191Z,24.79
2018-11-23T08:48:18.664Z,25.25
2018-11-23T08:48:31.067Z,25.25
2018-11-23T08:48:43.512Z,25.25
2018-11-23T08:48:55.905Z,25.25
2018-11-23T08:49:08.343Z,25.25
2018-11-23T08:49:21.287Z,25.25
2018-11-23T08:49:33.686Z,25.25
2018-11-23T08:49:46.174Z,25.25
2018-11-23T08:49:58.696Z,25.25
2018-11-23T08:50:11.328Z,25.25